sensor_id;sensor_type;location;lat;lon;timestamp;P1;durP1;ratioP1;P2;durP2;ratioP2
23565;SDS011;22140;48.988;8.544;2024-01-10T00:05:00;29.30;;;11.38;;
23565;SDS011;22140;48.988;8.544;2024-01-10T00:10:03;31.23;;;11.70;;
23565;SDS011;22140;48.988;8.544;2024-01-10T00:15:04;31.55;;;11.55;;
23565;SDS011;22140;48.988;8.544;2024-01-10T00:20:06;32.97;;;12.53;;
23565;SDS011;22140;48.988;8.544;2024-01-10T00:25:08;35.33;;;12.65;;
23565;SDS011;22140;48.988;8.544;2024-01-10T00:30:09;34.17;;;13.00;;
23565;SDS011;22140;48.988;8.544;2024-01-10T00:35:11;37.65;;;13.07;;
23565;SDS011;22140;48.988;8.544;2024-01-10T00:40:12;40.58;;;13.90;;
23565;SDS011;22140;48.988;8.544;2024-01-10T00:45:14;39.73;;;13.53;;
23565;SDS011;22140;48.988;8.544;2024-01-10T00:50:15;36.65;;;13.32;;
23565;SDS011;22140;48.988;8.544;2024-01-10T00:55:17;36.28;;;12.65;;
23565;SDS011;22140;48.988;8.544;2024-01-10T01:00:19;37.58;;;12.75;;
23565;SDS011;22140;48.988;8.544;2024-01-10T01:05:20;27.45;;;11.40;;
23565;SDS011;22140;48.988;8.544;2024-01-10T01:10:21;30.00;;;11.40;;
23565;SDS011;22140;48.988;8.544;2024-01-10T01:15:23;37.08;;;13.07;;
23565;SDS011;22140;48.988;8.544;2024-01-10T01:20:24;36.63;;;12.73;;
23565;SDS011;22140;48.988;8.544;2024-01-10T01:25:30;33.30;;;11.68;;
23565;SDS011;22140;48.988;8.544;2024-01-10T01:30:31;37.13;;;12.57;;
23565;SDS011;22140;48.988;8.544;2024-01-10T01:35:33;35.67;;;12.50;;
23565;SDS011;22140;48.988;8.544;2024-01-10T01:40:34;31.55;;;11.40;;
23565;SDS011;22140;48.988;8.544;2024-01-10T01:45:36;34.13;;;11.23;;
23565;SDS011;22140;48.988;8.544;2024-01-10T01:50:37;33.38;;;12.48;;
23565;SDS011;22140;48.988;8.544;2024-01-10T01:55:38;33.97;;;11.75;;
23565;SDS011;22140;48.988;8.544;2024-01-10T02:00:40;31.53;;;11.20;;
23565;SDS011;22140;48.988;8.544;2024-01-10T02:05:42;27.75;;;10.98;;
23565;SDS011;22140;48.988;8.544;2024-01-10T02:10:44;29.92;;;10.30;;
23565;SDS011;22140;48.988;8.544;2024-01-10T02:15:45;25.05;;;10.10;;
23565;SDS011;22140;48.988;8.544;2024-01-10T02:20:46;28.13;;;11.00;;
23565;SDS011;22140;48.988;8.544;2024-01-10T02:25:48;29.67;;;10.40;;
23565;SDS011;22140;48.988;8.544;2024-01-10T02:30:50;25.65;;;8.98;;
23565;SDS011;22140;48.988;8.544;2024-01-10T02:35:52;21.50;;;8.13;;
23565;SDS011;22140;48.988;8.544;2024-01-10T02:40:53;22.10;;;8.52;;
23565;SDS011;22140;48.988;8.544;2024-01-10T02:45:57;21.15;;;8.10;;
23565;SDS011;22140;48.988;8.544;2024-01-10T02:51:00;25.37;;;8.73;;
23565;SDS011;22140;48.988;8.544;2024-01-10T02:56:01;22.35;;;8.05;;
23565;SDS011;22140;48.988;8.544;2024-01-10T03:01:03;22.55;;;8.93;;
23565;SDS011;22140;48.988;8.544;2024-01-10T03:06:04;24.63;;;8.20;;
23565;SDS011;22140;48.988;8.544;2024-01-10T03:11:06;21.05;;;8.00;;
23565;SDS011;22140;48.988;8.544;2024-01-10T03:16:07;23.97;;;9.00;;
23565;SDS011;22140;48.988;8.544;2024-01-10T03:21:08;31.02;;;8.90;;
23565;SDS011;22140;48.988;8.544;2024-01-10T03:26:10;25.35;;;9.45;;
23565;SDS011;22140;48.988;8.544;2024-01-10T03:31:12;23.30;;;8.50;;
23565;SDS011;22140;48.988;8.544;2024-01-10T03:36:15;25.50;;;8.57;;
23565;SDS011;22140;48.988;8.544;2024-01-10T03:41:17;21.30;;;8.00;;
23565;SDS011;22140;48.988;8.544;2024-01-10T03:46:18;23.23;;;8.75;;
23565;SDS011;22140;48.988;8.544;2024-01-10T03:51:20;22.23;;;7.78;;
23565;SDS011;22140;48.988;8.544;2024-01-10T03:56:22;19.67;;;6.93;;
23565;SDS011;22140;48.988;8.544;2024-01-10T04:01:24;20.58;;;6.72;;
23565;SDS011;22140;48.988;8.544;2024-01-10T04:06:25;22.93;;;8.40;;
23565;SDS011;22140;48.988;8.544;2024-01-10T04:11:27;25.10;;;7.65;;
23565;SDS011;22140;48.988;8.544;2024-01-10T04:16:29;23.98;;;7.63;;
23565;SDS011;22140;48.988;8.544;2024-01-10T04:21:30;17.70;;;7.20;;
23565;SDS011;22140;48.988;8.544;2024-01-10T04:26:31;27.90;;;10.00;;
23565;SDS011;22140;48.988;8.544;2024-01-10T04:31:33;26.83;;;9.47;;
23565;SDS011;22140;48.988;8.544;2024-01-10T04:36:36;31.05;;;9.90;;
23565;SDS011;22140;48.988;8.544;2024-01-10T04:41:38;28.08;;;9.20;;
23565;SDS011;22140;48.988;8.544;2024-01-10T04:46:40;20.83;;;7.30;;
23565;SDS011;22140;48.988;8.544;2024-01-10T04:51:43;23.27;;;8.77;;
23565;SDS011;22140;48.988;8.544;2024-01-10T04:56:44;22.27;;;9.00;;
23565;SDS011;22140;48.988;8.544;2024-01-10T05:01:46;32.78;;;13.50;;
23565;SDS011;22140;48.988;8.544;2024-01-10T05:06:47;27.13;;;11.23;;
23565;SDS011;22140;48.988;8.544;2024-01-10T05:11:48;18.02;;;7.35;;
23565;SDS011;22140;48.988;8.544;2024-01-10T05:16:52;23.48;;;7.15;;
23565;SDS011;22140;48.988;8.544;2024-01-10T05:21:54;21.17;;;6.93;;
23565;SDS011;22140;48.988;8.544;2024-01-10T05:26:56;19.35;;;6.55;;
23565;SDS011;22140;48.988;8.544;2024-01-10T05:31:58;20.83;;;7.30;;
23565;SDS011;22140;48.988;8.544;2024-01-10T05:37:00;20.63;;;7.68;;
23565;SDS011;22140;48.988;8.544;2024-01-10T05:42:01;19.15;;;7.40;;
23565;SDS011;22140;48.988;8.544;2024-01-10T05:47:06;20.67;;;7.50;;
23565;SDS011;22140;48.988;8.544;2024-01-10T05:52:07;21.38;;;7.43;;
23565;SDS011;22140;48.988;8.544;2024-01-10T05:57:09;22.73;;;8.10;;
23565;SDS011;22140;48.988;8.544;2024-01-10T06:02:10;23.70;;;6.95;;
23565;SDS011;22140;48.988;8.544;2024-01-10T06:07:12;21.75;;;8.95;;
23565;SDS011;22140;48.988;8.544;2024-01-10T06:12:13;22.60;;;7.87;;
23565;SDS011;22140;48.988;8.544;2024-01-10T06:17:14;26.17;;;9.02;;
23565;SDS011;22140;48.988;8.544;2024-01-10T06:22:16;26.80;;;10.30;;
23565;SDS011;22140;48.988;8.544;2024-01-10T06:27:18;32.28;;;10.00;;
23565;SDS011;22140;48.988;8.544;2024-01-10T06:32:19;30.30;;;9.13;;
23565;SDS011;22140;48.988;8.544;2024-01-10T06:37:21;23.53;;;7.97;;
23565;SDS011;22140;48.988;8.544;2024-01-10T06:42:22;27.73;;;7.85;;
23565;SDS011;22140;48.988;8.544;2024-01-10T06:47:23;22.55;;;8.07;;
23565;SDS011;22140;48.988;8.544;2024-01-10T06:52:25;25.85;;;9.35;;
23565;SDS011;22140;48.988;8.544;2024-01-10T06:57:27;24.73;;;9.27;;
23565;SDS011;22140;48.988;8.544;2024-01-10T07:02:28;21.27;;;7.90;;
23565;SDS011;22140;48.988;8.544;2024-01-10T07:07:30;32.92;;;9.95;;
23565;SDS011;22140;48.988;8.544;2024-01-10T07:12:32;28.48;;;9.27;;
23565;SDS011;22140;48.988;8.544;2024-01-10T07:17:34;50.20;;;12.50;;
23565;SDS011;22140;48.988;8.544;2024-01-10T07:22:35;26.92;;;9.80;;
23565;SDS011;22140;48.988;8.544;2024-01-10T07:27:37;21.57;;;8.37;;
23565;SDS011;22140;48.988;8.544;2024-01-10T07:32:42;24.08;;;8.27;;
23565;SDS011;22140;48.988;8.544;2024-01-10T07:37:44;29.33;;;8.38;;
23565;SDS011;22140;48.988;8.544;2024-01-10T07:42:45;30.60;;;9.60;;
23565;SDS011;22140;48.988;8.544;2024-01-10T07:47:47;25.70;;;9.68;;
23565;SDS011;22140;48.988;8.544;2024-01-10T07:52:48;26.33;;;10.10;;
23565;SDS011;22140;48.988;8.544;2024-01-10T07:57:49;30.45;;;11.27;;
23565;SDS011;22140;48.988;8.544;2024-01-10T08:02:51;56.67;;;12.77;;
23565;SDS011;22140;48.988;8.544;2024-01-10T08:07:52;26.55;;;9.23;;
23565;SDS011;22140;48.988;8.544;2024-01-10T08:12:54;38.72;;;13.88;;
23565;SDS011;22140;48.988;8.544;2024-01-10T08:17:55;33.17;;;10.43;;
23565;SDS011;22140;48.988;8.544;2024-01-10T08:22:57;26.45;;;8.82;;
23565;SDS011;22140;48.988;8.544;2024-01-10T08:27:58;32.10;;;10.52;;
23565;SDS011;22140;48.988;8.544;2024-01-10T08:33:00;22.35;;;8.35;;
23565;SDS011;22140;48.988;8.544;2024-01-10T08:38:01;24.42;;;8.00;;
23565;SDS011;22140;48.988;8.544;2024-01-10T08:43:05;24.60;;;9.00;;
23565;SDS011;22140;48.988;8.544;2024-01-10T08:48:07;50.05;;;9.82;;
23565;SDS011;22140;48.988;8.544;2024-01-10T08:53:11;26.10;;;9.50;;
23565;SDS011;22140;48.988;8.544;2024-01-10T08:58:13;30.45;;;9.80;;
23565;SDS011;22140;48.988;8.544;2024-01-10T09:03:15;22.45;;;8.43;;
23565;SDS011;22140;48.988;8.544;2024-01-10T09:08:16;25.73;;;9.53;;
23565;SDS011;22140;48.988;8.544;2024-01-10T09:13:18;24.67;;;9.20;;
23565;SDS011;22140;48.988;8.544;2024-01-10T09:18:19;31.73;;;9.68;;
23565;SDS011;22140;48.988;8.544;2024-01-10T09:23:21;24.95;;;9.77;;
23565;SDS011;22140;48.988;8.544;2024-01-10T09:28:23;26.65;;;10.05;;
23565;SDS011;22140;48.988;8.544;2024-01-10T09:33:24;27.43;;;10.37;;
23565;SDS011;22140;48.988;8.544;2024-01-10T09:38:26;27.20;;;9.88;;
23565;SDS011;22140;48.988;8.544;2024-01-10T09:43:28;24.30;;;10.02;;
23565;SDS011;22140;48.988;8.544;2024-01-10T09:48:31;26.30;;;10.50;;
23565;SDS011;22140;48.988;8.544;2024-01-10T09:53:34;29.83;;;10.88;;
23565;SDS011;22140;48.988;8.544;2024-01-10T09:58:36;29.30;;;10.23;;
23565;SDS011;22140;48.988;8.544;2024-01-10T10:03:41;28.17;;;10.82;;
23565;SDS011;22140;48.988;8.544;2024-01-10T10:08:46;28.83;;;10.48;;
23565;SDS011;22140;48.988;8.544;2024-01-10T10:13:47;25.70;;;10.48;;
23565;SDS011;22140;48.988;8.544;2024-01-10T10:18:49;29.35;;;10.65;;
23565;SDS011;22140;48.988;8.544;2024-01-10T10:23:59;30.60;;;10.67;;
23565;SDS011;22140;48.988;8.544;2024-01-10T10:29:01;31.45;;;11.18;;
23565;SDS011;22140;48.988;8.544;2024-01-10T10:34:04;27.83;;;10.95;;
23565;SDS011;22140;48.988;8.544;2024-01-10T10:39:06;31.08;;;10.45;;
23565;SDS011;22140;48.988;8.544;2024-01-10T10:44:14;27.58;;;11.27;;
23565;SDS011;22140;48.988;8.544;2024-01-10T10:49:19;32.77;;;11.67;;
23565;SDS011;22140;48.988;8.544;2024-01-10T10:54:26;28.15;;;10.27;;
23565;SDS011;22140;48.988;8.544;2024-01-10T10:59:29;38.33;;;11.43;;
23565;SDS011;22140;48.988;8.544;2024-01-10T11:04:33;34.63;;;12.52;;
23565;SDS011;22140;48.988;8.544;2024-01-10T11:09:35;29.70;;;11.15;;
23565;SDS011;22140;48.988;8.544;2024-01-10T11:14:49;33.97;;;11.90;;
23565;SDS011;22140;48.988;8.544;2024-01-10T11:25:11;31.20;;;10.80;;
23565;SDS011;22140;48.988;8.544;2024-01-10T11:30:13;33.95;;;12.07;;
23565;SDS011;22140;48.988;8.544;2024-01-10T11:35:20;45.70;;;12.05;;
23565;SDS011;22140;48.988;8.544;2024-01-10T11:41:05;33.03;;;12.43;;
23565;SDS011;22140;48.988;8.544;2024-01-10T11:45:50;29.98;;;11.77;;
23565;SDS011;22140;48.988;8.544;2024-01-10T11:50:52;34.40;;;12.90;;
23565;SDS011;22140;48.988;8.544;2024-01-10T11:55:53;31.65;;;12.38;;
23565;SDS011;22140;48.988;8.544;2024-01-10T12:00:54;29.88;;;12.10;;
23565;SDS011;22140;48.988;8.544;2024-01-10T12:05:57;26.77;;;11.57;;
23565;SDS011;22140;48.988;8.544;2024-01-10T12:10:59;38.85;;;12.70;;
23565;SDS011;22140;48.988;8.544;2024-01-10T12:16:00;33.30;;;11.73;;
23565;SDS011;22140;48.988;8.544;2024-01-10T12:21:02;33.03;;;12.77;;
23565;SDS011;22140;48.988;8.544;2024-01-10T12:26:10;33.15;;;11.75;;
23565;SDS011;22140;48.988;8.544;2024-01-10T12:31:14;28.10;;;11.97;;
23565;SDS011;22140;48.988;8.544;2024-01-10T12:36:16;32.90;;;11.43;;
23565;SDS011;22140;48.988;8.544;2024-01-10T12:41:18;41.90;;;12.50;;
23565;SDS011;22140;48.988;8.544;2024-01-10T12:46:20;31.13;;;12.43;;
23565;SDS011;22140;48.988;8.544;2024-01-10T12:51:21;45.35;;;13.70;;
23565;SDS011;22140;48.988;8.544;2024-01-10T12:56:23;32.10;;;12.97;;
23565;SDS011;22140;48.988;8.544;2024-01-10T13:01:25;31.85;;;12.60;;
23565;SDS011;22140;48.988;8.544;2024-01-10T13:06:27;31.88;;;12.13;;
23565;SDS011;22140;48.988;8.544;2024-01-10T13:11:29;31.15;;;12.50;;
23565;SDS011;22140;48.988;8.544;2024-01-10T13:16:31;28.38;;;11.85;;
23565;SDS011;22140;48.988;8.544;2024-01-10T13:21:46;33.03;;;13.03;;
23565;SDS011;22140;48.988;8.544;2024-01-10T13:26:47;32.10;;;12.75;;
23565;SDS011;22140;48.988;8.544;2024-01-10T13:31:49;37.88;;;12.90;;
23565;SDS011;22140;48.988;8.544;2024-01-10T13:36:51;30.52;;;12.88;;
23565;SDS011;22140;48.988;8.544;2024-01-10T13:41:52;31.63;;;13.32;;
23565;SDS011;22140;48.988;8.544;2024-01-10T13:46:54;28.40;;;12.13;;
23565;SDS011;22140;48.988;8.544;2024-01-10T13:51:55;34.35;;;13.07;;
23565;SDS011;22140;48.988;8.544;2024-01-10T13:56:57;34.75;;;13.07;;
23565;SDS011;22140;48.988;8.544;2024-01-10T14:01:58;33.92;;;12.10;;
23565;SDS011;22140;48.988;8.544;2024-01-10T14:07:00;33.42;;;13.73;;
23565;SDS011;22140;48.988;8.544;2024-01-10T14:12:02;26.13;;;11.53;;
23565;SDS011;22140;48.988;8.544;2024-01-10T14:17:03;36.30;;;14.07;;
23565;SDS011;22140;48.988;8.544;2024-01-10T14:22:07;30.63;;;12.77;;
23565;SDS011;22140;48.988;8.544;2024-01-10T14:27:26;35.50;;;13.25;;
23565;SDS011;22140;48.988;8.544;2024-01-10T14:32:28;32.42;;;13.02;;
23565;SDS011;22140;48.988;8.544;2024-01-10T14:37:30;32.33;;;13.07;;
23565;SDS011;22140;48.988;8.544;2024-01-10T14:42:31;32.33;;;13.02;;
23565;SDS011;22140;48.988;8.544;2024-01-10T14:47:34;31.95;;;13.05;;
23565;SDS011;22140;48.988;8.544;2024-01-10T14:52:36;32.33;;;12.75;;
23565;SDS011;22140;48.988;8.544;2024-01-10T14:57:38;31.50;;;13.38;;
23565;SDS011;22140;48.988;8.544;2024-01-10T15:02:39;43.30;;;15.00;;
23565;SDS011;22140;48.988;8.544;2024-01-10T15:07:41;34.42;;;13.93;;
23565;SDS011;22140;48.988;8.544;2024-01-10T15:12:42;36.42;;;13.63;;
23565;SDS011;22140;48.988;8.544;2024-01-10T15:17:45;36.63;;;14.10;;
23565;SDS011;22140;48.988;8.544;2024-01-10T15:22:47;34.67;;;13.57;;
23565;SDS011;22140;48.988;8.544;2024-01-10T15:27:49;30.87;;;12.27;;
23565;SDS011;22140;48.988;8.544;2024-01-10T15:32:51;32.33;;;13.93;;
23565;SDS011;22140;48.988;8.544;2024-01-10T15:37:53;40.97;;;17.52;;
23565;SDS011;22140;48.988;8.544;2024-01-10T15:42:54;42.08;;;15.43;;
23565;SDS011;22140;48.988;8.544;2024-01-10T15:47:55;37.95;;;15.57;;
23565;SDS011;22140;48.988;8.544;2024-01-10T15:52:57;40.60;;;14.50;;
23565;SDS011;22140;48.988;8.544;2024-01-10T15:57:58;37.38;;;14.95;;
23565;SDS011;22140;48.988;8.544;2024-01-10T16:03:00;37.53;;;14.30;;
23565;SDS011;22140;48.988;8.544;2024-01-10T16:08:04;38.53;;;15.32;;
23565;SDS011;22140;48.988;8.544;2024-01-10T16:13:06;43.15;;;17.42;;
23565;SDS011;22140;48.988;8.544;2024-01-10T16:18:07;48.83;;;19.47;;
23565;SDS011;22140;48.988;8.544;2024-01-10T16:23:09;47.60;;;18.65;;
23565;SDS011;22140;48.988;8.544;2024-01-10T16:28:10;45.42;;;17.63;;
23565;SDS011;22140;48.988;8.544;2024-01-10T16:33:11;45.60;;;18.55;;
23565;SDS011;22140;48.988;8.544;2024-01-10T16:38:13;46.40;;;19.20;;
23565;SDS011;22140;48.988;8.544;2024-01-10T16:43:15;71.57;;;18.30;;
23565;SDS011;22140;48.988;8.544;2024-01-10T16:48:16;48.58;;;16.58;;
23565;SDS011;22140;48.988;8.544;2024-01-10T16:53:18;43.60;;;15.07;;
23565;SDS011;22140;48.988;8.544;2024-01-10T16:58:20;35.28;;;13.93;;
23565;SDS011;22140;48.988;8.544;2024-01-10T17:03:21;37.35;;;15.38;;
23565;SDS011;22140;48.988;8.544;2024-01-10T17:08:23;35.43;;;14.43;;
23565;SDS011;22140;48.988;8.544;2024-01-10T17:13:26;50.17;;;15.93;;
23565;SDS011;22140;48.988;8.544;2024-01-10T17:18:28;40.92;;;16.25;;
23565;SDS011;22140;48.988;8.544;2024-01-10T17:23:29;41.33;;;14.50;;
23565;SDS011;22140;48.988;8.544;2024-01-10T17:28:31;40.50;;;15.95;;
23565;SDS011;22140;48.988;8.544;2024-01-10T17:33:32;43.07;;;15.80;;
23565;SDS011;22140;48.988;8.544;2024-01-10T17:38:35;43.58;;;16.67;;
23565;SDS011;22140;48.988;8.544;2024-01-10T17:43:38;39.70;;;15.95;;
23565;SDS011;22140;48.988;8.544;2024-01-10T17:48:39;36.75;;;14.40;;
23565;SDS011;22140;48.988;8.544;2024-01-10T17:53:41;39.58;;;15.93;;
23565;SDS011;22140;48.988;8.544;2024-01-10T17:58:42;45.07;;;16.57;;
23565;SDS011;22140;48.988;8.544;2024-01-10T18:03:43;38.47;;;15.90;;
23565;SDS011;22140;48.988;8.544;2024-01-10T18:08:47;40.92;;;15.73;;
23565;SDS011;22140;48.988;8.544;2024-01-10T18:13:48;64.38;;;15.70;;
23565;SDS011;22140;48.988;8.544;2024-01-10T18:18:49;36.15;;;13.88;;
23565;SDS011;22140;48.988;8.544;2024-01-10T18:23:51;40.30;;;16.20;;
23565;SDS011;22140;48.988;8.544;2024-01-10T18:28:52;44.15;;;16.45;;
23565;SDS011;22140;48.988;8.544;2024-01-10T18:33:54;41.38;;;16.02;;
23565;SDS011;22140;48.988;8.544;2024-01-10T18:38:56;38.95;;;14.95;;
23565;SDS011;22140;48.988;8.544;2024-01-10T18:43:57;42.67;;;16.65;;
23565;SDS011;22140;48.988;8.544;2024-01-10T18:48:59;48.97;;;18.13;;
23565;SDS011;22140;48.988;8.544;2024-01-10T18:54:00;42.75;;;16.70;;
23565;SDS011;22140;48.988;8.544;2024-01-10T18:59:03;61.60;;;23.17;;
23565;SDS011;22140;48.988;8.544;2024-01-10T19:04:04;46.85;;;20.35;;
23565;SDS011;22140;48.988;8.544;2024-01-10T19:09:06;44.63;;;17.70;;
23565;SDS011;22140;48.988;8.544;2024-01-10T19:14:07;46.77;;;18.07;;
23565;SDS011;22140;48.988;8.544;2024-01-10T19:19:11;48.67;;;19.05;;
23565;SDS011;22140;48.988;8.544;2024-01-10T19:24:14;51.08;;;19.02;;
23565;SDS011;22140;48.988;8.544;2024-01-10T19:29:15;48.92;;;18.58;;
23565;SDS011;22140;48.988;8.544;2024-01-10T19:34:17;52.17;;;19.50;;
23565;SDS011;22140;48.988;8.544;2024-01-10T19:39:18;44.90;;;17.37;;
23565;SDS011;22140;48.988;8.544;2024-01-10T19:44:19;42.53;;;18.38;;
23565;SDS011;22140;48.988;8.544;2024-01-10T19:49:21;45.50;;;17.50;;
23565;SDS011;22140;48.988;8.544;2024-01-10T19:54:22;44.63;;;17.58;;
23565;SDS011;22140;48.988;8.544;2024-01-10T19:59:24;51.05;;;20.75;;
23565;SDS011;22140;48.988;8.544;2024-01-10T20:04:25;57.47;;;21.03;;
23565;SDS011;22140;48.988;8.544;2024-01-10T20:09:26;52.17;;;18.98;;
23565;SDS011;22140;48.988;8.544;2024-01-10T20:14:28;39.83;;;16.98;;
23565;SDS011;22140;48.988;8.544;2024-01-10T20:19:41;46.22;;;18.17;;
23565;SDS011;22140;48.988;8.544;2024-01-10T20:24:43;46.22;;;18.15;;
23565;SDS011;22140;48.988;8.544;2024-01-10T20:29:44;48.07;;;18.80;;
23565;SDS011;22140;48.988;8.544;2024-01-10T20:34:48;50.92;;;20.23;;
23565;SDS011;22140;48.988;8.544;2024-01-10T20:39:53;49.83;;;19.63;;
23565;SDS011;22140;48.988;8.544;2024-01-10T20:44:55;52.22;;;19.05;;
23565;SDS011;22140;48.988;8.544;2024-01-10T20:49:57;46.10;;;18.63;;
23565;SDS011;22140;48.988;8.544;2024-01-10T20:55:00;41.67;;;16.83;;
23565;SDS011;22140;48.988;8.544;2024-01-10T21:00:01;44.15;;;18.52;;
23565;SDS011;22140;48.988;8.544;2024-01-10T21:05:07;44.67;;;19.25;;
23565;SDS011;22140;48.988;8.544;2024-01-10T21:10:10;53.72;;;20.85;;
23565;SDS011;22140;48.988;8.544;2024-01-10T21:15:20;59.30;;;23.27;;
23565;SDS011;22140;48.988;8.544;2024-01-10T21:20:21;61.00;;;24.57;;
23565;SDS011;22140;48.988;8.544;2024-01-10T21:25:23;45.08;;;20.02;;
23565;SDS011;22140;48.988;8.544;2024-01-10T21:30:27;52.35;;;19.15;;
23565;SDS011;22140;48.988;8.544;2024-01-10T21:35:29;46.58;;;18.95;;
23565;SDS011;22140;48.988;8.544;2024-01-10T21:40:34;52.55;;;20.33;;
23565;SDS011;22140;48.988;8.544;2024-01-10T21:45:38;42.67;;;17.93;;
23565;SDS011;22140;48.988;8.544;2024-01-10T21:50:42;73.15;;;26.08;;
23565;SDS011;22140;48.988;8.544;2024-01-10T21:55:46;56.85;;;22.17;;
23565;SDS011;22140;48.988;8.544;2024-01-10T22:00:47;46.03;;;18.40;;
23565;SDS011;22140;48.988;8.544;2024-01-10T22:05:49;47.92;;;18.27;;
23565;SDS011;22140;48.988;8.544;2024-01-10T22:10:51;46.93;;;17.27;;
23565;SDS011;22140;48.988;8.544;2024-01-10T22:15:53;45.80;;;19.02;;
23565;SDS011;22140;48.988;8.544;2024-01-10T22:20:54;52.05;;;19.80;;
23565;SDS011;22140;48.988;8.544;2024-01-10T22:25:57;49.55;;;19.15;;
23565;SDS011;22140;48.988;8.544;2024-01-10T22:30:58;48.85;;;18.50;;
23565;SDS011;22140;48.988;8.544;2024-01-10T22:35:59;53.50;;;19.60;;
23565;SDS011;22140;48.988;8.544;2024-01-10T22:41:01;51.50;;;18.90;;
23565;SDS011;22140;48.988;8.544;2024-01-10T22:46:02;47.63;;;17.50;;
23565;SDS011;22140;48.988;8.544;2024-01-10T22:51:04;44.67;;;17.35;;
23565;SDS011;22140;48.988;8.544;2024-01-10T22:56:05;45.25;;;17.42;;
23565;SDS011;22140;48.988;8.544;2024-01-10T23:01:07;42.83;;;18.30;;
23565;SDS011;22140;48.988;8.544;2024-01-10T23:06:08;44.47;;;17.48;;
23565;SDS011;22140;48.988;8.544;2024-01-10T23:11:10;48.13;;;17.58;;
23565;SDS011;22140;48.988;8.544;2024-01-10T23:16:13;43.10;;;17.10;;
23565;SDS011;22140;48.988;8.544;2024-01-10T23:21:15;44.50;;;17.52;;
23565;SDS011;22140;48.988;8.544;2024-01-10T23:26:16;48.57;;;18.37;;
23565;SDS011;22140;48.988;8.544;2024-01-10T23:31:20;45.85;;;17.60;;
23565;SDS011;22140;48.988;8.544;2024-01-10T23:36:22;41.20;;;16.08;;
23565;SDS011;22140;48.988;8.544;2024-01-10T23:41:28;42.55;;;16.25;;
23565;SDS011;22140;48.988;8.544;2024-01-10T23:46:29;44.90;;;16.70;;
23565;SDS011;22140;48.988;8.544;2024-01-10T23:51:31;41.77;;;15.93;;
23565;SDS011;22140;48.988;8.544;2024-01-10T23:56:32;45.40;;;17.00;;
